Time;durP1;ratioP1;P1;durP2;ratioP2;P2;SDS_P1;SDS_P2;PMS_P1;PMS_P2;Temp;Humidity;BMP_temperature;BMP_pressure;BME280_temperature;BME280_humidity;BME280_pressure;Samples;Min_cycle;Max_cycle;Signal;HPM_P1;HPM_P2
2022/08/02 00:00:50;;;;;;;0.00;0.00;;;;;;;18.68;73.22;98463.16;4991792;28;20137;-80
2022/08/02 00:03:21;;;;;;;0.10;0.10;;;;;;;18.73;73.08;98457.19;4987600;28;20068;-80
2022/08/02 00:05:50;;;;;;;0.10;0.10;;;;;;;18.76;72.65;98451.47;4991323;28;20157;-79
2022/08/02 00:08:19;;;;;;;0.10;0.10;;;;;;;18.75;72.52;98452.50;4989469;28;20113;-79
2022/08/02 00:10:46;;;;;;;0.10;0.10;;;;;;;18.69;72.95;98458.63;4988300;28;20092;-79
2022/08/02 00:13:12;;;;;;;0.10;0.10;;;;;;;18.64;73.11;98456.56;4972040;28;20133;-80
2022/08/02 00:15:39;;;;;;;0.00;0.00;;;;;;;18.69;73.42;98456.78;4988954;28;20571;-80
2022/08/02 00:18:05;;;;;;;0.10;0.10;;;;;;;18.67;73.53;98458.00;4990023;28;20968;-80
2022/08/02 00:20:32;;;;;;;0.00;0.00;;;;;;;18.58;73.89;98460.06;4991227;28;20078;-80
2022/08/02 00:22:58;;;;;;;0.10;0.10;;;;;;;18.50;74.49;98460.28;4988565;28;20054;-79
2022/08/02 00:25:25;;;;;;;0.10;0.10;;;;;;;18.47;74.85;98461.50;4990189;28;20050;-80
2022/08/02 00:27:52;;;;;;;0.10;0.10;;;;;;;18.47;75.14;98458.00;4989875;28;20101;-80
2022/08/02 00:30:18;;;;;;;0.00;0.00;;;;;;;18.45;75.45;98463.56;4990754;28;20118;-81
2022/08/02 00:32:45;;;;;;;0.10;0.10;;;;;;;18.47;75.53;98466.03;4991098;28;20080;-80
2022/08/02 00:35:11;;;;;;;0.00;0.00;;;;;;;18.44;75.70;98467.28;4989449;28;20535;-80
2022/08/02 00:37:39;;;;;;;0.10;0.10;;;;;;;18.40;75.98;98460.66;4991740;28;20137;-80
2022/08/02 00:40:07;;;;;;;0.10;0.10;;;;;;;18.35;76.24;98460.44;4986758;28;20060;-80
2022/08/02 00:42:34;;;;;;;0.00;0.00;;;;;;;18.36;76.24;98462.94;4988282;28;20089;-79
2022/08/02 00:45:01;;;;;;;0.00;0.00;;;;;;;18.37;76.83;98461.06;4986074;28;20456;-79
2022/08/02 00:47:27;;;;;;;0.10;0.10;;;;;;;18.39;76.29;98465.19;4989986;28;20078;-79
2022/08/02 00:49:54;;;;;;;0.10;0.10;;;;;;;18.41;76.15;98465.00;4989944;28;20766;-79
2022/08/02 00:52:22;;;;;;;0.00;0.00;;;;;;;18.44;75.97;98469.97;4989996;28;20047;-79
2022/08/02 00:54:49;;;;;;;0.00;0.00;;;;;;;18.50;75.93;98465.63;4989386;28;20077;-79
2022/08/02 00:57:16;;;;;;;0.10;0.10;;;;;;;18.47;75.54;98463.38;4987535;28;20497;-79
2022/08/02 00:59:42;;;;;;;0.10;0.10;;;;;;;18.43;75.82;98463.78;4990123;28;20081;-79
2022/08/02 01:02:09;;;;;;;0.10;0.10;;;;;;;18.45;75.93;98460.06;4989739;28;20046;-80
2022/08/02 01:04:36;;;;;;;0.00;0.00;;;;;;;18.48;75.68;98455.09;4994177;28;20060;-79
2022/08/02 01:07:03;;;;;;;0.10;0.10;;;;;;;18.52;75.70;98460.91;4993239;28;20099;-79
2022/08/02 01:09:43;;;;;;;0.00;0.00;;;;;;;18.46;75.77;98457.19;4993394;28;20177;-79
2022/08/02 01:12:10;;;;;;;0.00;0.00;;;;;;;18.45;75.80;98458.19;5008455;28;20120;-79
2022/08/02 01:14:38;;;;;;;0.10;0.10;;;;;;;18.42;75.96;98454.06;4991457;28;20465;-80
2022/08/02 01:17:30;;;;;;;0.10;0.10;;;;;;;18.41;75.67;98456.97;4987780;28;20052;-79
2022/08/02 01:20:24;;;;;;;0.10;0.10;;;;;;;18.40;75.89;98460.66;4991448;28;20200;-79
2022/08/02 01:23:18;;;;;;;0.00;0.00;;;;;;;18.39;76.22;98465.19;4990675;28;20493;-80
2022/08/02 01:26:12;;;;;;;0.10;0.10;;;;;;;18.44;75.85;98467.28;4992696;28;20062;-79
2022/08/02 01:28:42;;;;;;;0.00;0.00;;;;;;;18.44;76.20;98467.28;4985633;28;20475;-79
2022/08/02 01:31:18;;;;;;;0.10;0.10;;;;;;;18.46;75.95;98473.25;4990620;28;20050;-79
2022/08/02 01:34:12;;;;;;;0.10;0.10;;;;;;;18.49;76.11;98477.38;4990531;28;20145;-79
2022/08/02 01:36:41;;;;;;;0.08;0.08;;;;;;;18.41;76.36;98479.22;4992516;28;20073;-79
2022/08/02 01:39:13;;;;;;;0.00;0.00;;;;;;;18.36;76.30;98484.34;4992197;28;20074;-79
2022/08/02 01:41:58;;;;;;;0.10;0.10;;;;;;;18.32;76.79;98483.09;4990803;28;20050;-80
2022/08/02 01:44:27;;;;;;;0.00;0.00;;;;;;;18.28;76.25;98489.09;4992422;28;20078;-79
2022/08/02 01:46:57;;;;;;;0.00;0.00;;;;;;;18.23;76.83;98478.16;4993734;28;20050;-79
2022/08/02 01:49:25;;;;;;;0.00;0.00;;;;;;;18.22;76.79;98482.69;4992817;28;20182;-80
2022/08/02 01:54:39;;;;;;;0.10;0.10;;;;;;;18.19;76.80;98485.75;4993697;28;20122;-80
2022/08/02 01:57:09;;;;;;;0.10;0.10;;;;;;;18.17;76.78;98485.16;4994762;28;20500;-80
2022/08/02 01:59:36;;;;;;;0.10;0.10;;;;;;;18.18;76.85;98481.44;4996115;28;20073;-79
2022/08/02 02:02:06;;;;;;;0.00;0.00;;;;;;;18.19;76.93;98493.78;4994315;28;20113;-80
2022/08/02 02:04:34;;;;;;;0.05;0.05;;;;;;;18.15;76.98;98479.16;4998494;28;20060;-80
2022/08/02 02:07:02;;;;;;;0.03;0.03;;;;;;;18.15;77.17;98489.88;4993067;28;20198;-80
2022/08/02 02:09:29;;;;;;;0.10;0.10;;;;;;;18.17;77.07;98487.81;4994168;28;20501;-80
2022/08/02 02:11:58;;;;;;;0.00;0.00;;;;;;;18.14;77.28;98493.56;4995106;28;20054;-79
2022/08/02 02:14:38;;;;;;;;;;;;;;;18.12;77.12;98485.75;4993271;28;20050;-79
2022/08/02 02:17:06;;;;;;;0.10;0.10;;;;;;;18.09;77.57;98488.84;4976160;28;20008;-79
2022/08/02 02:19:33;;;;;;;0.10;0.10;;;;;;;18.08;77.45;98483.66;4993981;28;20077;-79
2022/08/02 02:21:59;;;;;;;0.00;0.00;;;;;;;18.11;77.34;98492.09;4992668;28;20081;-79
2022/08/02 02:24:27;;;;;;;0.10;0.10;;;;;;;18.09;77.19;98486.16;4990649;28;20421;-80
2022/08/02 02:26:54;;;;;;;0.00;0.00;;;;;;;18.06;77.47;98486.56;4992395;28;20100;-80
2022/08/02 02:29:24;;;;;;;0.00;0.00;;;;;;;18.03;77.54;98486.94;4994236;28;20165;-79
2022/08/02 02:31:52;;;;;;;0.00;0.00;;;;;;;17.98;77.94;98484.88;4993713;28;20096;-79
2022/08/02 02:34:28;;;;;;;0.00;0.00;;;;;;;17.92;78.38;98483.00;4992149;28;20552;-79
2022/08/02 02:36:57;;;;;;;0.00;0.00;;;;;;;17.97;77.81;98475.19;4989986;28;20077;-79
2022/08/02 02:39:25;;;;;;;0.10;0.10;;;;;;;17.91;78.09;98481.34;4989556;28;20491;-79
2022/08/02 02:41:53;;;;;;;0.10;0.10;;;;;;;17.95;77.96;98476.41;4990243;28;20082;-80
2022/08/02 02:44:21;;;;;;;0.00;0.00;;;;;;;17.86;78.33;98474.94;4993282;28;20169;-79
2022/08/02 02:46:51;;;;;;;0.10;0.10;;;;;;;17.82;78.59;98466.47;4984673;28;20078;-79
2022/08/02 02:49:19;;;;;;;0.10;0.10;;;;;;;17.82;78.67;98471.81;4989991;28;20138;-79
2022/08/02 02:51:46;;;;;;;0.10;0.10;;;;;;;17.84;78.58;98471.63;4990226;28;20062;-79
2022/08/02 02:54:14;;;;;;;0.10;0.10;;;;;;;17.84;78.67;98471.63;4991367;28;20085;-78
2022/08/02 02:57:01;;;;;;;0.10;0.10;;;;;;;17.85;78.59;98471.47;4988312;28;20066;-79
2022/08/02 02:59:28;;;;;;;0.10;0.10;;;;;;;17.89;78.10;98466.50;4991768;28;20223;-79
2022/08/02 03:01:55;;;;;;;0.10;0.10;;;;;;;17.93;78.19;98463.25;4990269;28;20081;-80
2022/08/02 03:04:26;;;;;;;0.10;0.10;;;;;;;17.97;78.14;98461.81;4992556;28;20133;-79
2022/08/02 03:07:02;;;;;;;0.00;0.00;;;;;;;17.99;78.21;98461.63;4987658;28;20059;-79
2022/08/02 03:09:29;;;;;;;0.00;0.00;;;;;;;18.00;78.11;98463.25;4990244;28;20050;-79
2022/08/02 03:11:56;;;;;;;0.00;0.00;;;;;;;18.02;78.04;98466.56;4991029;28;20432;-79
2022/08/02 03:14:23;;;;;;;0.10;0.10;;;;;;;18.04;78.00;98458.34;4989640;28;20543;-79
2022/08/02 03:16:51;;;;;;;0.10;0.10;;;;;;;18.04;78.00;98459.16;4991367;28;20073;-78
2022/08/02 03:19:19;;;;;;;0.00;0.00;;;;;;;18.03;78.21;98446.78;4991253;28;20058;-78
2022/08/02 03:21:47;;;;;;;0.10;0.10;;;;;;;18.05;78.04;98451.94;4991273;28;20054;-78
2022/08/02 03:24:22;;;;;;;0.00;0.00;;;;;;;18.06;77.70;98457.13;4991841;28;20050;-79
2022/08/02 03:26:54;;;;;;;0.10;0.10;;;;;;;18.05;77.68;98466.16;4992695;28;20081;-79
2022/08/02 03:29:20;;;;;;;0.10;0.10;;;;;;;18.03;77.70;98462.03;4992176;28;20097;-80
2022/08/02 03:31:47;;;;;;;0.10;0.10;;;;;;;17.99;78.15;98462.44;4986578;28;20140;-80
2022/08/02 03:34:14;;;;;;;0.10;0.10;;;;;;;17.99;77.69;98462.44;4991267;28;20058;-80
2022/08/02 03:36:41;;;;;;;0.10;0.10;;;;;;;17.87;78.25;98469.38;4994470;28;20140;-79
2022/08/02 03:39:09;;;;;;;0.00;0.00;;;;;;;17.86;78.26;98475.78;4994196;28;20149;-79
2022/08/02 03:41:37;;;;;;;0.10;0.10;;;;;;;17.88;78.26;98473.72;4989926;28;20491;-78
2022/08/02 03:44:04;;;;;;;0.00;0.00;;;;;;;17.84;78.51;98474.31;4989216;28;20090;-78
2022/08/02 03:46:31;;;;;;;0.10;0.10;;;;;;;17.78;78.89;98478.59;4989399;28;20050;-80
2022/08/02 03:48:58;;;;;;;0.00;0.00;;;;;;;17.75;78.84;98479.00;4990930;28;20074;-80
2022/08/02 03:51:25;;;;;;;0.00;0.00;;;;;;;17.76;78.56;98481.44;4995593;28;20563;-80
2022/08/02 03:53:52;;;;;;;0.10;0.10;;;;;;;17.80;78.72;98481.94;4993238;28;20089;-80
2022/08/02 03:56:18;;;;;;;0.00;0.00;;;;;;;17.80;78.72;98481.06;4993465;28;20050;-80
2022/08/02 03:58:45;;;;;;;0.05;0.05;;;;;;;17.82;78.49;98489.75;4995606;28;20074;-80
2022/08/02 04:01:15;;;;;;;0.00;0.00;;;;;;;17.76;78.19;98492.16;4990189;28;20054;-79
2022/08/02 04:03:42;;;;;;;0.00;0.00;;;;;;;17.75;78.48;98493.19;4986723;28;20058;-79
2022/08/02 04:06:08;;;;;;;0.00;0.00;;;;;;;17.64;78.66;98491.09;4989746;28;20137;-79
2022/08/02 04:08:35;;;;;;;0.10;0.10;;;;;;;17.56;79.13;98493.91;5004900;28;20654;-79
2022/08/02 04:13:49;;;;;;;0.08;0.08;;;;;;;17.48;79.35;98500.25;4989618;28;20052;-81
2022/08/02 04:16:21;;;;;;;0.00;0.00;;;;;;;17.51;79.38;98513.25;4989026;28;20054;-79
2022/08/02 04:18:59;;;;;;;0.10;0.10;;;;;;;17.49;79.59;98515.28;4989564;28;20065;-79
2022/08/02 04:21:30;;;;;;;0.10;0.10;;;;;;;17.51;79.60;98507.06;4970397;28;20484;-79
2022/08/02 04:24:17;;;;;;;0.10;0.10;;;;;;;17.47;79.85;98520.00;4979056;28;20080;-80
2022/08/02 04:26:45;;;;;;;0.10;0.10;;;;;;;17.47;79.66;98511.97;4995294;28;20652;-80
2022/08/02 04:29:16;;;;;;;0.00;0.00;;;;;;;17.45;79.77;98516.69;4994764;28;20050;-81
2022/08/02 04:31:42;;;;;;;0.08;0.08;;;;;;;17.43;79.96;98516.06;4992813;28;20119;-80
2022/08/02 04:34:09;;;;;;;0.10;0.10;;;;;;;17.43;79.98;98518.75;4998568;28;20472;-79
2022/08/02 04:36:41;;;;;;;0.10;0.10;;;;;;;17.45;79.83;98518.53;4993412;28;20148;-80
2022/08/02 04:39:07;;;;;;;0.00;0.00;;;;;;;17.49;79.90;98525.97;4990403;28;20056;-80
2022/08/02 04:41:42;;;;;;;0.10;0.10;;;;;;;17.54;79.93;98533.41;4996088;28;20485;-81
2022/08/02 04:44:10;;;;;;;0.00;0.00;;;;;;;17.55;79.80;98527.84;4996861;28;20081;-80
2022/08/02 04:46:38;;;;;;;0.10;0.10;;;;;;;17.61;79.75;98533.44;4986783;28;20074;-79
2022/08/02 04:49:05;;;;;;;0.00;0.00;;;;;;;17.73;79.77;98531.88;4995485;28;20536;-79
2022/08/02 04:51:36;;;;;;;0.00;0.00;;;;;;;17.82;79.58;98528.03;4999759;28;20489;-80
2022/08/02 04:54:04;;;;;;;0.00;0.00;;;;;;;17.91;79.17;98532.19;4993159;28;20062;-80
2022/08/02 04:56:38;;;;;;;0.10;0.10;;;;;;;17.98;78.63;98525.03;4994695;28;20046;-79
2022/08/02 04:59:05;;;;;;;0.10;0.10;;;;;;;18.05;78.89;98513.53;4995460;28;20137;-79
2022/08/02 05:01:32;;;;;;;0.00;0.00;;;;;;;18.12;78.76;98515.19;4995160;28;20054;-80
2022/08/02 05:03:59;;;;;;;0.10;0.10;;;;;;;18.19;78.20;98515.19;4995819;28;20069;-81
2022/08/02 05:06:26;;;;;;;0.10;0.10;;;;;;;18.21;78.55;98521.19;5000530;28;20531;-80
2022/08/02 05:08:53;;;;;;;0.00;0.00;;;;;;;18.27;78.50;98527.59;5000215;28;20085;-81
2022/08/02 05:11:21;;;;;;;0.00;0.00;;;;;;;18.35;77.93;98524.72;4993457;28;20433;-81
2022/08/02 05:13:55;;;;;;;0.10;0.10;;;;;;;18.44;77.49;98526.22;4999089;28;20054;-81
2022/08/02 05:16:25;;;;;;;0.30;0.30;;;;;;;18.33;77.73;98527.63;4994467;28;20050;-80
2022/08/02 05:18:58;;;;;;;0.00;0.00;;;;;;;18.31;77.84;98528.84;4997191;28;20050;-81
2022/08/02 05:21:25;;;;;;;0.00;0.00;;;;;;;18.30;77.87;98525.34;4995684;28;20061;-81
2022/08/02 05:23:51;;;;;;;0.00;0.00;;;;;;;18.34;77.70;98523.09;4996018;28;20061;-81
2022/08/02 05:26:18;;;;;;;0.10;0.10;;;;;;;18.28;77.70;98530.06;4994505;28;20064;-80
2022/08/02 05:28:44;;;;;;;0.10;0.10;;;;;;;18.39;77.92;98526.00;4993153;28;20085;-81
2022/08/02 05:31:11;;;;;;;0.00;0.00;;;;;;;18.42;77.70;98522.91;4995901;28;20145;-80
2022/08/02 05:33:39;;;;;;;0.00;0.00;;;;;;;18.38;77.60;98519.81;4993922;28;20047;-81
2022/08/02 05:36:08;;;;;;;0.10;0.10;;;;;;;18.36;77.30;98516.50;4996947;28;20081;-81
2022/08/02 05:38:34;;;;;;;0.10;0.10;;;;;;;18.36;77.62;98519.19;4998028;28;20284;-80
2022/08/02 05:41:03;;;;;;;0.10;0.10;;;;;;;18.32;78.06;98517.91;4998010;28;20050;-80
2022/08/02 05:43:29;;;;;;;0.10;0.10;;;;;;;18.32;78.00;98525.13;4991016;28;20057;-81
2022/08/02 05:45:56;;;;;;;0.00;0.00;;;;;;;18.38;77.95;98517.13;4990630;28;20219;-80
2022/08/02 05:48:23;;;;;;;0.10;0.10;;;;;;;18.47;77.99;98516.94;4997662;28;20068;-80
2022/08/02 05:51:02;;;;;;;0.00;0.00;;;;;;;18.52;77.35;98517.97;4993987;28;20054;-80
2022/08/02 05:53:48;;;;;;;0.05;0.05;;;;;;;18.57;77.05;98525.41;4994709;28;20061;-80
2022/08/02 05:56:39;;;;;;;0.10;0.10;;;;;;;18.60;77.23;98527.69;4995942;28;20157;-80
2022/08/02 05:59:26;;;;;;;0.00;0.00;;;;;;;18.54;77.57;98523.16;4997475;28;20046;-81
2022/08/02 06:02:08;;;;;;;0.10;0.10;;;;;;;18.61;77.49;98527.47;4990913;28;20508;-80
2022/08/02 06:05:12;;;;;;;0.10;0.10;;;;;;;18.63;76.85;98532.63;4995493;28;20054;-80
2022/08/02 06:07:39;;;;;;;;;;;;;;;18.59;76.66;98531.41;4995272;28;20081;-81
2022/08/02 06:10:07;;;;;;;0.00;0.00;;;;;;;18.68;76.99;98534.72;4994601;28;20024;-80
2022/08/02 06:12:40;;;;;;;0.00;0.00;;;;;;;18.75;76.77;98530.22;4992245;28;20080;-80
2022/08/02 06:15:07;;;;;;;0.00;0.00;;;;;;;18.81;76.50;98529.41;4992163;28;20168;-81
2022/08/02 06:17:33;;;;;;;0.10;0.10;;;;;;;18.93;76.31;98530.44;4987146;28;20053;-81
2022/08/02 06:20:07;;;;;;;0.00;0.00;;;;;;;18.97;75.41;98536.22;4990571;28;20046;-80
2022/08/02 06:22:34;;;;;;;0.00;0.00;;;;;;;19.00;75.53;98536.59;4994648;28;20046;-81
2022/08/02 06:25:04;;;;;;;0.10;0.10;;;;;;;19.08;74.59;98540.94;4994541;28;20108;-82
2022/08/02 06:27:33;;;;;;;0.00;0.00;;;;;;;19.06;74.59;98534.97;4997771;28;20169;-80
2022/08/02 06:30:01;;;;;;;0.10;0.10;;;;;;;19.16;74.41;98526.50;4994930;28;20732;-81
2022/08/02 06:32:28;;;;;;;0.00;0.00;;;;;;;19.29;74.60;98531.84;4996885;28;20105;-80
2022/08/02 06:34:54;;;;;;;0.00;0.00;;;;;;;19.29;73.77;98532.69;4993784;28;20550;-80
2022/08/02 06:37:37;;;;;;;0.00;0.00;;;;;;;19.33;73.38;98533.09;5001519;28;20168;-79
2022/08/02 06:40:13;;;;;;;0.10;0.10;;;;;;;19.40;72.92;98535.75;5000957;28;20088;-80
2022/08/02 06:42:48;;;;;;;0.00;0.00;;;;;;;19.45;72.36;98530.59;4997408;28;20048;-80
2022/08/02 06:45:15;;;;;;;0.00;0.00;;;;;;;19.48;71.79;98522.13;5000463;28;20073;-81
2022/08/02 06:47:42;;;;;;;0.00;0.00;;;;;;;19.48;71.63;98524.81;4993811;28;20077;-80
2022/08/02 06:50:10;;;;;;;0.10;0.10;;;;;;;19.52;71.75;98518.81;4992457;28;20162;-80
2022/08/02 06:52:39;;;;;;;0.10;0.10;;;;;;;19.57;70.83;98528.94;4992188;28;20050;-80
2022/08/02 06:55:06;;;;;;;0.10;0.10;;;;;;;19.63;70.67;98529.94;4999555;28;20084;-81
2022/08/02 06:57:33;;;;;;;0.10;0.10;;;;;;;19.62;71.02;98529.13;4994798;28;20402;-80
2022/08/02 07:00:05;;;;;;;0.10;0.10;;;;;;;19.62;70.90;98529.13;4994819;28;20050;-81
2022/08/02 07:02:31;;;;;;;;;;;;;;;19.61;71.15;98527.47;4989514;28;20050;-81
2022/08/02 07:04:58;;;;;;;0.00;0.00;;;;;;;19.75;70.99;98525.63;4975392;28;22512;-81
2022/08/02 07:07:26;;;;;;;0.10;0.10;;;;;;;19.79;69.86;98526.00;4992612;28;20146;-81
2022/08/02 07:09:52;;;;;;;0.10;0.10;;;;;;;19.77;69.44;98530.75;4994718;28;20042;-82
2022/08/02 07:12:30;;;;;;;0.00;0.00;;;;;;;19.71;69.37;98530.56;5000229;28;20058;-81
2022/08/02 07:15:04;;;;;;;0.10;0.10;;;;;;;19.80;70.67;98524.97;5000193;28;20054;-81
2022/08/02 07:17:31;;;;;;;0.00;0.00;;;;;;;19.93;69.73;98527.59;4995131;28;20081;-80
2022/08/02 07:19:58;;;;;;;0.10;0.10;;;;;;;20.03;69.71;98532.53;4993321;28;20061;-80
2022/08/02 07:22:27;;;;;;;0.00;0.00;;;;;;;20.03;69.70;98536.03;4991344;28;20505;-80
2022/08/02 07:24:57;;;;;;;0.10;0.10;;;;;;;20.05;69.54;98530.47;4991144;28;20054;-80
2022/08/02 07:27:24;;;;;;;0.10;0.10;;;;;;;20.12;70.10;98532.09;4997464;28;20120;-80
2022/08/02 07:29:51;;;;;;;0.00;0.00;;;;;;;20.24;68.82;98523.34;4996631;28;20077;-79
2022/08/02 07:32:20;;;;;;;0.00;0.00;;;;;;;20.39;68.32;98534.66;4994443;28;20141;-80
2022/08/02 07:34:47;;;;;;;0.00;0.00;;;;;;;20.47;67.75;98541.63;4993670;28;20096;-80
2022/08/02 07:37:22;;;;;;;;;;;;;;;20.48;67.71;98537.91;5005651;28;20101;-81
2022/08/02 07:40:10;;;;;;;0.10;0.10;;;;;;;20.50;67.88;98533.13;4989420;28;20376;-81
2022/08/02 07:42:46;;;;;;;0.00;0.00;;;;;;;20.51;66.81;98537.47;4990517;28;20222;-81
2022/08/02 07:45:13;;;;;;;0.00;0.00;;;;;;;20.57;67.08;98534.78;4990963;28;20086;-80
2022/08/02 07:47:40;;;;;;;0.00;0.00;;;;;;;20.50;67.43;98546.56;4996792;28;20181;-80
2022/08/02 07:50:08;;;;;;;0.00;0.00;;;;;;;20.49;67.73;98542.25;4998927;28;20341;-80
2022/08/02 07:52:36;;;;;;;0.10;0.10;;;;;;;20.58;67.88;98541.78;4996753;28;20103;-81
2022/08/02 07:55:03;;;;;;;0.00;0.00;;;;;;;20.69;67.37;98547.53;5000590;28;20089;-80
2022/08/02 07:57:30;;;;;;;0.10;0.10;;;;;;;20.71;66.54;98534.69;4975573;28;20136;-81
2022/08/02 07:59:57;;;;;;;0.00;0.00;;;;;;;20.69;65.95;98542.16;4992415;28;20116;-80
2022/08/02 08:02:24;;;;;;;0.00;0.00;;;;;;;20.66;66.84;98543.41;4996615;28;20069;-80
2022/08/02 08:04:51;;;;;;;0.00;0.00;;;;;;;20.64;67.50;98539.28;4996836;28;20116;-81
2022/08/02 08:07:19;;;;;;;0.00;0.00;;;;;;;20.72;67.31;98552.47;4997350;28;20050;-80
2022/08/02 08:09:46;;;;;;;0.00;0.00;;;;;;;20.81;66.44;98551.19;4983068;28;20085;-82
2022/08/02 08:12:14;;;;;;;0.00;0.00;;;;;;;20.88;65.55;98543.91;5002363;28;20133;-80
2022/08/02 08:14:42;;;;;;;0.10;0.10;;;;;;;20.89;65.18;98537.47;4991348;28;20050;-81
2022/08/02 08:17:09;;;;;;;0.10;0.10;;;;;;;20.84;66.14;98539.97;4995622;28;20057;-81
2022/08/02 08:19:35;;;;;;;0.10;0.10;;;;;;;20.84;66.61;98534.59;5000227;28;20125;-81
2022/08/02 08:22:21;;;;;;;0.10;0.10;;;;;;;21.01;64.00;98533.03;5000897;28;20508;-81
2022/08/02 08:24:48;;;;;;;0.10;0.10;;;;;;;20.96;64.23;98532.88;4996897;28;20058;-81
2022/08/02 08:27:18;;;;;;;4.90;4.57;;;;;;;21.11;63.89;98534.38;4998798;28;20108;-82
2022/08/02 08:29:45;;;;;;;0.03;0.03;;;;;;;21.21;64.81;98543.63;4997096;28;20053;-81
2022/08/02 08:32:15;;;;;;;0.00;0.00;;;;;;;21.23;64.59;98538.03;4993552;28;20345;-81
2022/08/02 08:34:44;;;;;;;0.10;0.10;;;;;;;21.20;63.25;98544.66;4997312;28;20749;-81
2022/08/02 08:37:11;;;;;;;0.00;0.00;;;;;;;21.18;64.18;98540.53;4999366;28;20046;-81
2022/08/02 08:39:45;;;;;;;0.00;0.00;;;;;;;21.25;65.32;98527.88;4998104;28;20078;-81
2022/08/02 08:42:25;;;;;;;0.20;0.20;;;;;;;21.36;62.71;98537.91;4998442;28;20121;-81
2022/08/02 08:44:53;;;;;;;0.10;0.10;;;;;;;21.42;62.62;98545.13;4998730;28;20129;-81
2022/08/02 08:47:22;;;;;;;0.05;0.05;;;;;;;21.43;62.66;98533.31;4992276;28;20062;-81
2022/08/02 08:49:50;;;;;;;0.00;0.00;;;;;;;21.39;62.94;98534.78;4996342;28;20060;-81
2022/08/02 08:52:18;;;;;;;0.15;0.15;;;;;;;21.38;62.95;98529.63;5000050;28;20064;-81
2022/08/02 08:54:47;;;;;;;0.00;0.00;;;;;;;21.39;63.79;98526.72;5000587;28;20078;-81
2022/08/02 08:57:16;;;;;;;0.00;0.00;;;;;;;21.63;64.24;98530.41;4994013;28;20609;-83
2022/08/02 08:59:44;;;;;;;0.00;0.00;;;;;;;21.68;63.62;98535.13;4997320;28;20050;-81
2022/08/02 09:02:11;;;;;;;0.10;0.10;;;;;;;21.78;62.24;98530.06;4996541;28;20046;-81
2022/08/02 09:04:47;;;;;;;0.00;0.00;;;;;;;21.81;63.07;98536.84;4995196;28;20058;-82
2022/08/02 09:07:21;;;;;;;0.00;0.00;;;;;;;21.80;62.45;98527.13;4996657;28;20049;-81
2022/08/02 09:09:47;;;;;;;0.00;0.00;;;;;;;21.84;62.37;98518.38;4999138;28;20082;-81
2022/08/02 09:12:15;;;;;;;0.10;0.10;;;;;;;21.88;60.32;98516.88;4997428;28;20129;-80
2022/08/02 09:14:41;;;;;;;0.10;0.10;;;;;;;22.00;60.89;98529.59;4998032;28;20051;-81
2022/08/02 09:17:11;;;;;;;0.05;0.05;;;;;;;21.92;60.26;98526.16;4997043;28;20560;-81
2022/08/02 09:19:38;;;;;;;0.10;0.10;;;;;;;21.89;60.82;98521.22;4999010;28;20091;-81
2022/08/02 09:22:12;;;;;;;0.10;0.10;;;;;;;21.96;62.39;98521.16;4998148;28;20058;-82
2022/08/02 09:24:48;;;;;;;0.00;0.00;;;;;;;22.01;62.54;98512.38;5001382;28;20046;-81
2022/08/02 09:27:17;;;;;;;0.10;0.10;;;;;;;22.02;62.34;98512.16;5000224;28;20047;-82
2022/08/02 09:29:49;;;;;;;0.00;0.00;;;;;;;21.99;61.11;98517.19;5002669;28;20066;-80
2022/08/02 09:32:46;;;;;;;0.10;0.10;;;;;;;22.08;62.08;98510.44;5002400;28;20061;-82
2022/08/02 09:35:14;;;;;;;0.10;0.10;;;;;;;22.13;61.88;98508.69;4994101;28;20062;-81
2022/08/02 09:37:40;;;;;;;0.10;0.10;;;;;;;22.25;60.93;98497.16;4995713;28;22302;-81
2022/08/02 09:40:10;;;;;;;0.00;0.00;;;;;;;22.44;58.20;98501.47;4996298;28;20061;-79
2022/08/02 09:42:57;;;;;;;0.17;0.17;;;;;;;22.55;57.56;98500.69;4995751;28;20056;-80
2022/08/02 09:45:29;;;;;;;0.10;0.10;;;;;;;22.46;58.84;98504.78;4996209;28;20080;-81
2022/08/02 09:47:55;;;;;;;0.10;0.10;;;;;;;22.53;58.53;98499.25;5000233;28;20360;-82
2022/08/02 09:50:22;;;;;;;0.10;0.10;;;;;;;22.67;59.69;98506.13;5001941;28;20136;-81
2022/08/02 09:52:49;;;;;;;0.32;0.32;;;;;;;22.56;58.75;98499.66;4997574;28;20133;-80
2022/08/02 09:55:15;;;;;;;0.10;0.10;;;;;;;22.64;58.85;98497.66;4994139;28;20764;-82
2022/08/02 09:57:42;;;;;;;0.10;0.10;;;;;;;22.61;57.57;98501.63;4997523;28;20085;-82
2022/08/02 10:00:16;;;;;;;0.10;0.10;;;;;;;22.50;57.64;98499.72;5000218;28;20046;-81
2022/08/02 10:03:08;;;;;;;0.00;0.00;;;;;;;22.49;58.28;98498.91;4999493;28;20050;-81
2022/08/02 10:05:50;;;;;;;0.00;0.00;;;;;;;22.56;58.77;98498.81;4996965;28;20125;-80
2022/08/02 10:08:28;;;;;;;0.10;0.10;;;;;;;22.53;57.28;98492.00;4994018;28;20054;-81
2022/08/02 10:10:59;;;;;;;0.00;0.00;;;;;;;22.50;57.26;98494.34;4990473;28;20154;-80
2022/08/02 10:13:34;;;;;;;0.10;0.10;;;;;;;22.55;56.95;98494.47;4990860;28;20054;-81
2022/08/02 10:16:02;;;;;;;0.10;0.10;;;;;;;22.51;58.14;98494.13;4993839;28;20121;-80
2022/08/02 10:18:29;;;;;;;0.10;0.10;;;;;;;22.68;59.42;98496.97;4995677;28;20054;-82
2022/08/02 10:21:19;;;;;;;0.13;0.13;;;;;;;22.96;55.80;98499.06;4993773;28;20081;-83
2022/08/02 10:23:47;;;;;;;0.10;0.10;;;;;;;22.97;57.42;98483.69;4996468;28;20092;-82
2022/08/02 10:26:15;;;;;;;0.10;0.10;;;;;;;22.99;57.83;98486.97;4990739;28;20073;-82
2022/08/02 10:28:44;;;;;;;0.10;0.10;;;;;;;23.00;57.62;98483.22;4992304;28;20163;-83
2022/08/02 10:31:13;;;;;;;0.10;0.10;;;;;;;23.03;56.17;98488.13;4997354;28;20082;-83
2022/08/02 10:33:40;;;;;;;0.10;0.10;;;;;;;23.07;55.65;98488.50;5011146;28;20080;-83
2022/08/02 10:36:07;;;;;;;0.10;0.10;;;;;;;22.99;55.26;98481.56;4992586;28;20054;-83
2022/08/02 10:38:34;;;;;;;0.00;0.00;;;;;;;22.96;57.14;98479.28;4993711;28;20089;-83
2022/08/02 10:41:02;;;;;;;0.10;0.10;;;;;;;23.02;56.89;98478.41;4998420;28;20076;-83
2022/08/02 10:43:31;;;;;;;0.10;0.10;;;;;;;22.98;56.28;98469.94;4990691;28;20731;-82
2022/08/02 10:46:27;;;;;;;0.10;0.10;;;;;;;23.01;56.09;98468.66;4992717;28;20082;-85
2022/08/02 10:49:14;;;;;;;0.10;0.10;;;;;;;23.08;56.29;98469.38;4993290;28;20133;-83
2022/08/02 10:52:00;;;;;;;0.10;0.10;;;;;;;22.81;56.81;98468.16;4993675;28;20053;-83
2022/08/02 10:54:30;;;;;;;0.00;0.00;;;;;;;22.72;56.95;98465.78;4992324;28;20078;-82
2022/08/02 10:56:58;;;;;;;0.10;0.10;;;;;;;22.68;57.66;98458.41;4993951;28;20078;-81
2022/08/02 10:59:36;;;;;;;0.03;0.03;;;;;;;22.64;56.27;98458.03;4993581;28;20136;-81
2022/08/02 11:02:04;;;;;;;0.10;0.10;;;;;;;22.78;54.47;98464.84;4987797;28;20129;-81
2022/08/02 11:04:32;;;;;;;0.10;0.10;;;;;;;22.74;55.17;98454.75;4993594;28;20640;-83
2022/08/02 11:07:09;;;;;;;0.10;0.10;;;;;;;22.93;55.55;98455.47;4976533;28;20133;-82
2022/08/02 11:09:36;;;;;;;0.10;0.10;;;;;;;22.99;53.85;98454.59;4988981;28;20127;-83
2022/08/02 11:12:14;;;;;;;0.10;0.10;;;;;;;22.95;53.26;98453.38;4994440;28;20129;-83
2022/08/02 11:14:59;;;;;;;0.10;0.10;;;;;;;22.88;53.81;98449.97;4991806;28;20050;-82
2022/08/02 11:17:29;;;;;;;0.10;0.10;;;;;;;22.86;55.92;98454.78;4991408;28;20171;-82
2022/08/02 11:20:09;;;;;;;0.10;0.10;;;;;;;22.88;55.00;98447.25;4993802;28;20071;-82
2022/08/02 11:22:37;;;;;;;0.10;0.10;;;;;;;22.98;55.23;98447.53;4994511;28;20519;-83
2022/08/02 11:25:22;;;;;;;0.00;0.00;;;;;;;23.13;53.65;98453.28;4994849;28;20092;-82
2022/08/02 11:27:53;;;;;;;0.10;0.10;;;;;;;23.31;53.04;98448.84;4993003;28;20065;-81
2022/08/02 11:30:21;;;;;;;0.10;0.10;;;;;;;23.40;52.16;98431.19;4992793;28;20056;-82
2022/08/02 11:32:57;;;;;;;0.10;0.10;;;;;;;23.55;54.35;98438.81;4994858;28;20081;-82
2022/08/02 11:35:31;;;;;;;0.10;0.10;;;;;;;23.69;55.11;98428.56;5007798;28;20567;-84
2022/08/02 11:38:12;;;;;;;0.10;0.10;;;;;;;23.68;50.76;98425.03;4992827;28;20137;-81
2022/08/02 11:40:38;;;;;;;0.10;0.10;;;;;;;23.63;50.77;98428.47;4994816;28;20077;-82
2022/08/02 11:43:18;;;;;;;0.10;0.10;;;;;;;23.69;52.41;98418.56;4990686;28;20077;-81
2022/08/02 11:45:45;;;;;;;0.10;0.10;;;;;;;23.82;54.33;98423.72;4999750;28;20075;-82
2022/08/02 11:48:12;;;;;;;0.10;0.10;;;;;;;23.94;53.71;98415.59;4995310;28;20116;-83
2022/08/02 11:50:39;;;;;;;0.10;0.10;;;;;;;24.10;50.17;98422.91;4994773;28;20046;-82
2022/08/02 11:53:13;;;;;;;0.10;0.10;;;;;;;24.33;49.90;98426.59;4992806;28;20184;-81
2022/08/02 11:55:39;;;;;;;0.05;0.05;;;;;;;24.02;52.05;98422.50;4996604;28;20464;-82